Terminal Aerodrome Forecast
Issued by NWS Pittsburgh, PA

Current Version | Previous Version | Graphics & Text | Print | Product List | Glossary On
Versions: 1 2 3 4 5 6 7 8 9 10 11 12 13 14 15 16 17 18 19 20 21 22 23 24 25 26 27 28 29
000
FTUS41 KPBZ 232300
TAFPIT
TAF
KPIT 232320Z 2400/2506 26008KT P6SM SKC
     FM241300 16005KT P6SM BKN250
     FM241800 20010G20KT P6SM BKN120
     FM250100 24010KT 3SM -SN OVC015=

USA.gov is the U.S. government's official web portal to all federal, state and local government web resources and services.